sensor_id;sensor_type;location;lat;lon;timestamp;temperature;humidity
15111;DHT22;7656;51.954;7.998;2023-04-01T00:03:45;10.10;99.90
15111;DHT22;7656;51.954;7.998;2023-04-01T00:08:06;10.20;99.90
15111;DHT22;7656;51.954;7.998;2023-04-01T00:12:27;10.00;99.90
15111;DHT22;7656;51.954;7.998;2023-04-01T00:16:48;10.10;99.90
15111;DHT22;7656;51.954;7.998;2023-04-01T00:21:09;10.00;99.90
15111;DHT22;7656;51.954;7.998;2023-04-01T00:25:30;10.00;99.90
15111;DHT22;7656;51.954;7.998;2023-04-01T00:29:52;9.90;99.90
15111;DHT22;7656;51.954;7.998;2023-04-01T00:34:13;9.90;99.90
15111;DHT22;7656;51.954;7.998;2023-04-01T00:38:34;9.90;99.90
15111;DHT22;7656;51.954;7.998;2023-04-01T00:42:55;9.90;99.90
15111;DHT22;7656;51.954;7.998;2023-04-01T00:47:17;9.80;99.90
15111;DHT22;7656;51.954;7.998;2023-04-01T00:51:39;9.70;99.90
15111;DHT22;7656;51.954;7.998;2023-04-01T00:56:05;9.60;99.90
15111;DHT22;7656;51.954;7.998;2023-04-01T01:00:30;9.40;99.90
15111;DHT22;7656;51.954;7.998;2023-04-01T01:04:52;9.40;99.90
15111;DHT22;7656;51.954;7.998;2023-04-01T01:09:25;9.40;99.90
15111;DHT22;7656;51.954;7.998;2023-04-01T01:14:03;9.50;99.90
15111;DHT22;7656;51.954;7.998;2023-04-01T01:18:51;9.70;99.90
15111;DHT22;7656;51.954;7.998;2023-04-01T01:28:33;9.60;99.90
15111;DHT22;7656;51.954;7.998;2023-04-01T01:37:52;9.60;99.90
15111;DHT22;7656;51.954;7.998;2023-04-01T01:42:18;9.60;99.90
15111;DHT22;7656;51.954;7.998;2023-04-01T01:46:41;9.50;99.90
15111;DHT22;7656;51.954;7.998;2023-04-01T01:51:05;9.60;99.90
15111;DHT22;7656;51.954;7.998;2023-04-01T02:00:07;9.50;99.90
15111;DHT22;7656;51.954;7.998;2023-04-01T02:04:38;9.50;99.90
15111;DHT22;7656;51.954;7.998;2023-04-01T02:09:03;9.50;99.90
15111;DHT22;7656;51.954;7.998;2023-04-01T02:13:34;9.40;99.90
15111;DHT22;7656;51.954;7.998;2023-04-01T02:17:59;9.50;99.90
15111;DHT22;7656;51.954;7.998;2023-04-01T02:22:26;9.40;99.90
15111;DHT22;7656;51.954;7.998;2023-04-01T02:26:50;9.30;99.90
15111;DHT22;7656;51.954;7.998;2023-04-01T02:31:13;9.30;99.90
15111;DHT22;7656;51.954;7.998;2023-04-01T02:35:38;9.30;99.90
15111;DHT22;7656;51.954;7.998;2023-04-01T02:40:01;9.50;99.90
15111;DHT22;7656;51.954;7.998;2023-04-01T02:44:23;9.50;99.90
15111;DHT22;7656;51.954;7.998;2023-04-01T02:48:45;9.70;99.90
15111;DHT22;7656;51.954;7.998;2023-04-01T02:53:06;9.80;99.90
15111;DHT22;7656;51.954;7.998;2023-04-01T02:57:27;9.80;99.90
15111;DHT22;7656;51.954;7.998;2023-04-01T03:01:48;10.00;99.90
15111;DHT22;7656;51.954;7.998;2023-04-01T03:06:12;9.90;99.90
15111;DHT22;7656;51.954;7.998;2023-04-01T03:10:34;9.80;99.90
15111;DHT22;7656;51.954;7.998;2023-04-01T03:14:56;9.80;99.90
15111;DHT22;7656;51.954;7.998;2023-04-01T03:19:17;9.60;99.90
15111;DHT22;7656;51.954;7.998;2023-04-01T03:23:38;9.60;99.90
15111;DHT22;7656;51.954;7.998;2023-04-01T03:27:59;9.50;99.90
15111;DHT22;7656;51.954;7.998;2023-04-01T03:32:21;9.40;99.90
15111;DHT22;7656;51.954;7.998;2023-04-01T03:36:42;9.40;99.90
15111;DHT22;7656;51.954;7.998;2023-04-01T03:41:03;9.40;99.90
15111;DHT22;7656;51.954;7.998;2023-04-01T03:45:26;9.40;99.90
15111;DHT22;7656;51.954;7.998;2023-04-01T03:49:47;9.20;99.90
15111;DHT22;7656;51.954;7.998;2023-04-01T03:54:09;9.20;99.90
15111;DHT22;7656;51.954;7.998;2023-04-01T03:58:31;9.30;99.90
15111;DHT22;7656;51.954;7.998;2023-04-01T04:02:52;9.20;99.90
15111;DHT22;7656;51.954;7.998;2023-04-01T04:07:19;9.30;99.90
15111;DHT22;7656;51.954;7.998;2023-04-01T04:11:55;9.30;99.90
15111;DHT22;7656;51.954;7.998;2023-04-01T04:16:17;9.30;99.90
15111;DHT22;7656;51.954;7.998;2023-04-01T04:20:46;9.30;99.90
15111;DHT22;7656;51.954;7.998;2023-04-01T04:25:09;9.30;99.90
15111;DHT22;7656;51.954;7.998;2023-04-01T04:29:31;9.30;99.90
15111;DHT22;7656;51.954;7.998;2023-04-01T04:33:52;9.40;99.90
15111;DHT22;7656;51.954;7.998;2023-04-01T04:38:14;9.70;99.90
15111;DHT22;7656;51.954;7.998;2023-04-01T04:42:35;9.70;99.90
15111;DHT22;7656;51.954;7.998;2023-04-01T04:47:03;9.50;99.90
15111;DHT22;7656;51.954;7.998;2023-04-01T04:51:25;9.50;99.90
15111;DHT22;7656;51.954;7.998;2023-04-01T04:55:49;9.60;99.90
15111;DHT22;7656;51.954;7.998;2023-04-01T05:00:36;9.80;99.90
15111;DHT22;7656;51.954;7.998;2023-04-01T05:05:01;9.60;99.90
15111;DHT22;7656;51.954;7.998;2023-04-01T05:09:22;9.70;99.90
15111;DHT22;7656;51.954;7.998;2023-04-01T05:13:44;9.90;99.90
15111;DHT22;7656;51.954;7.998;2023-04-01T05:18:06;9.70;99.90
15111;DHT22;7656;51.954;7.998;2023-04-01T05:22:27;9.70;99.90
15111;DHT22;7656;51.954;7.998;2023-04-01T05:26:49;9.60;99.90
15111;DHT22;7656;51.954;7.998;2023-04-01T05:31:10;9.50;99.90
15111;DHT22;7656;51.954;7.998;2023-04-01T05:35:34;9.30;99.90
15111;DHT22;7656;51.954;7.998;2023-04-01T05:39:55;9.40;99.90
15111;DHT22;7656;51.954;7.998;2023-04-01T05:44:16;9.50;99.90
15111;DHT22;7656;51.954;7.998;2023-04-01T05:48:37;9.70;99.90
15111;DHT22;7656;51.954;7.998;2023-04-01T05:52:58;9.40;99.90
15111;DHT22;7656;51.954;7.998;2023-04-01T05:57:19;9.30;99.90
15111;DHT22;7656;51.954;7.998;2023-04-01T06:01:42;9.40;99.90
15111;DHT22;7656;51.954;7.998;2023-04-01T06:06:03;9.70;99.90
15111;DHT22;7656;51.954;7.998;2023-04-01T06:10:55;9.50;99.90
15111;DHT22;7656;51.954;7.998;2023-04-01T06:15:41;9.50;99.90
15111;DHT22;7656;51.954;7.998;2023-04-01T06:25:33;9.60;99.90
15111;DHT22;7656;51.954;7.998;2023-04-01T06:34:57;9.50;99.90
15111;DHT22;7656;51.954;7.998;2023-04-01T06:39:45;9.30;99.90
15111;DHT22;7656;51.954;7.998;2023-04-01T06:44:23;9.30;99.90
15111;DHT22;7656;51.954;7.998;2023-04-01T06:49:36;9.20;99.90
15111;DHT22;7656;51.954;7.998;2023-04-01T06:54:36;9.20;99.90
15111;DHT22;7656;51.954;7.998;2023-04-01T06:59:17;9.20;99.90
15111;DHT22;7656;51.954;7.998;2023-04-01T07:03:44;9.30;99.90
15111;DHT22;7656;51.954;7.998;2023-04-01T07:08:16;9.70;99.90
15111;DHT22;7656;51.954;7.998;2023-04-01T07:12:47;9.90;99.90
15111;DHT22;7656;51.954;7.998;2023-04-01T07:17:28;10.10;99.90
15111;DHT22;7656;51.954;7.998;2023-04-01T07:21:56;10.00;99.90
15111;DHT22;7656;51.954;7.998;2023-04-01T07:26:31;10.00;99.90
15111;DHT22;7656;51.954;7.998;2023-04-01T07:36:05;10.10;99.90
15111;DHT22;7656;51.954;7.998;2023-04-01T07:40:35;10.60;99.90
15111;DHT22;7656;51.954;7.998;2023-04-01T07:45:23;10.50;99.90
15111;DHT22;7656;51.954;7.998;2023-04-01T07:55:15;10.90;99.90
15111;DHT22;7656;51.954;7.998;2023-04-01T08:09:56;11.00;99.90
15111;DHT22;7656;51.954;7.998;2023-04-01T08:19:56;11.10;99.90
15111;DHT22;7656;51.954;7.998;2023-04-01T08:24:42;10.90;99.90
15111;DHT22;7656;51.954;7.998;2023-04-01T08:29:23;10.80;99.90
15111;DHT22;7656;51.954;7.998;2023-04-01T08:33:49;11.10;99.90
15111;DHT22;7656;51.954;7.998;2023-04-01T08:38:19;11.10;99.90
15111;DHT22;7656;51.954;7.998;2023-04-01T08:43:07;10.90;99.90
15111;DHT22;7656;51.954;7.998;2023-04-01T09:02:42;11.20;99.90
15111;DHT22;7656;51.954;7.998;2023-04-01T09:12:26;11.20;99.90
15111;DHT22;7656;51.954;7.998;2023-04-01T09:31:38;11.40;99.90
15111;DHT22;7656;51.954;7.998;2023-04-01T09:36:47;11.50;99.90
15111;DHT22;7656;51.954;7.998;2023-04-01T09:41:31;11.40;99.90
15111;DHT22;7656;51.954;7.998;2023-04-01T10:00:51;11.50;99.90
15111;DHT22;7656;51.954;7.998;2023-04-01T10:41:45;12.40;99.90
15111;DHT22;7656;51.954;7.998;2023-04-01T10:57:44;11.90;99.90
15111;DHT22;7656;51.954;7.998;2023-04-01T11:22:50;12.00;99.90
15111;DHT22;7656;51.954;7.998;2023-04-01T11:57:19;11.50;99.90
15111;DHT22;7656;51.954;7.998;2023-04-01T12:01:59;11.80;99.90
15111;DHT22;7656;51.954;7.998;2023-04-01T12:07:00;11.70;99.90
15111;DHT22;7656;51.954;7.998;2023-04-01T12:21:21;11.90;99.90
15111;DHT22;7656;51.954;7.998;2023-04-01T12:26:04;11.80;99.90
15111;DHT22;7656;51.954;7.998;2023-04-01T12:35:45;12.00;99.90
15111;DHT22;7656;51.954;7.998;2023-04-01T12:40:35;12.40;99.90
15111;DHT22;7656;51.954;7.998;2023-04-01T12:45:30;13.30;99.90
15111;DHT22;7656;51.954;7.998;2023-04-01T13:03:58;13.90;99.90
15111;DHT22;7656;51.954;7.998;2023-04-01T13:08:58;13.50;99.90
15111;DHT22;7656;51.954;7.998;2023-04-01T13:28:15;13.30;99.90
15111;DHT22;7656;51.954;7.998;2023-04-01T13:32:50;13.40;99.90
15111;DHT22;7656;51.954;7.998;2023-04-01T13:51:49;13.40;99.90
15111;DHT22;7656;51.954;7.998;2023-04-01T14:01:36;13.90;99.90
15111;DHT22;7656;51.954;7.998;2023-04-01T14:15:39;14.70;99.90
15111;DHT22;7656;51.954;7.998;2023-04-01T14:20:25;14.90;99.90
15111;DHT22;7656;51.954;7.998;2023-04-01T14:25:01;15.10;99.90
15111;DHT22;7656;51.954;7.998;2023-04-01T14:34:38;15.40;99.90
15111;DHT22;7656;51.954;7.998;2023-04-01T14:44:17;15.90;99.90
15111;DHT22;7656;51.954;7.998;2023-04-01T14:48:59;15.40;99.90
15111;DHT22;7656;51.954;7.998;2023-04-01T14:53:27;14.80;99.90
15111;DHT22;7656;51.954;7.998;2023-04-01T14:58:08;14.50;99.90
15111;DHT22;7656;51.954;7.998;2023-04-01T15:02:56;14.10;99.90
15111;DHT22;7656;51.954;7.998;2023-04-01T15:07:43;14.10;99.90
15111;DHT22;7656;51.954;7.998;2023-04-01T15:12:13;14.10;99.90
15111;DHT22;7656;51.954;7.998;2023-04-01T15:16:54;14.00;99.90
15111;DHT22;7656;51.954;7.998;2023-04-01T15:21:56;14.10;99.90
15111;DHT22;7656;51.954;7.998;2023-04-01T15:35:39;14.00;99.90
15111;DHT22;7656;51.954;7.998;2023-04-01T15:49:42;14.90;99.90
15111;DHT22;7656;51.954;7.998;2023-04-01T15:54:37;14.20;99.90
15111;DHT22;7656;51.954;7.998;2023-04-01T16:04:32;13.50;99.90
15111;DHT22;7656;51.954;7.998;2023-04-01T16:14:18;13.70;99.90
15111;DHT22;7656;51.954;7.998;2023-04-01T16:33:55;12.40;99.90
15111;DHT22;7656;51.954;7.998;2023-04-01T16:43:52;13.00;99.90
15111;DHT22;7656;51.954;7.998;2023-04-01T16:48:28;12.90;99.90
15111;DHT22;7656;51.954;7.998;2023-04-01T16:53:09;12.80;99.90
15111;DHT22;7656;51.954;7.998;2023-04-01T17:02:20;12.80;99.90
15111;DHT22;7656;51.954;7.998;2023-04-01T17:06:52;12.70;99.90
15111;DHT22;7656;51.954;7.998;2023-04-01T17:11:25;12.60;99.90
15111;DHT22;7656;51.954;7.998;2023-04-01T17:25:37;12.50;99.90
15111;DHT22;7656;51.954;7.998;2023-04-01T17:49:42;11.60;99.90
15111;DHT22;7656;51.954;7.998;2023-04-01T17:54:40;11.30;99.90
15111;DHT22;7656;51.954;7.998;2023-04-01T18:09:15;10.60;99.90
15111;DHT22;7656;51.954;7.998;2023-04-01T18:13:46;10.50;99.90
15111;DHT22;7656;51.954;7.998;2023-04-01T18:23:36;10.70;99.90
15111;DHT22;7656;51.954;7.998;2023-04-01T18:28:30;10.60;99.90
15111;DHT22;7656;51.954;7.998;2023-04-01T18:33:09;10.30;99.90
15111;DHT22;7656;51.954;7.998;2023-04-01T18:37:47;10.30;99.90
15111;DHT22;7656;51.954;7.998;2023-04-01T18:47:40;10.30;99.90
15111;DHT22;7656;51.954;7.998;2023-04-01T18:52:31;10.30;99.90
15111;DHT22;7656;51.954;7.998;2023-04-01T18:57:07;10.30;99.90
15111;DHT22;7656;51.954;7.998;2023-04-01T19:01:37;10.10;99.90
15111;DHT22;7656;51.954;7.998;2023-04-01T19:06:17;9.90;99.90
15111;DHT22;7656;51.954;7.998;2023-04-01T19:11:17;9.80;99.90
15111;DHT22;7656;51.954;7.998;2023-04-01T19:20:37;9.70;99.90
15111;DHT22;7656;51.954;7.998;2023-04-01T19:25:29;9.70;99.90
15111;DHT22;7656;51.954;7.998;2023-04-01T19:35:09;9.60;99.90
15111;DHT22;7656;51.954;7.998;2023-04-01T20:03:50;9.00;99.90
15111;DHT22;7656;51.954;7.998;2023-04-01T20:13:18;8.80;99.90
15111;DHT22;7656;51.954;7.998;2023-04-01T20:17:45;8.80;99.90
15111;DHT22;7656;51.954;7.998;2023-04-01T20:22:28;8.70;99.90
15111;DHT22;7656;51.954;7.998;2023-04-01T20:27:14;8.80;99.90
15111;DHT22;7656;51.954;7.998;2023-04-01T20:31:43;8.60;99.90
15111;DHT22;7656;51.954;7.998;2023-04-01T20:55:36;8.40;99.90
15111;DHT22;7656;51.954;7.998;2023-04-01T21:00:24;8.40;99.90
15111;DHT22;7656;51.954;7.998;2023-04-01T21:25:06;7.70;99.90
15111;DHT22;7656;51.954;7.998;2023-04-01T21:29:33;7.70;99.90
15111;DHT22;7656;51.954;7.998;2023-04-01T21:34:50;7.90;99.90
15111;DHT22;7656;51.954;7.998;2023-04-01T21:39:27;7.90;99.90
15111;DHT22;7656;51.954;7.998;2023-04-01T22:08:52;7.40;99.90
15111;DHT22;7656;51.954;7.998;2023-04-01T22:13:28;7.40;99.90
15111;DHT22;7656;51.954;7.998;2023-04-01T22:17:58;7.50;99.90
15111;DHT22;7656;51.954;7.998;2023-04-01T22:23:31;7.50;99.90
15111;DHT22;7656;51.954;7.998;2023-04-01T22:27:58;7.50;99.90
15111;DHT22;7656;51.954;7.998;2023-04-01T22:32:32;7.50;99.90
15111;DHT22;7656;51.954;7.998;2023-04-01T22:37:14;7.50;99.90
15111;DHT22;7656;51.954;7.998;2023-04-01T22:51:41;7.50;99.90
15111;DHT22;7656;51.954;7.998;2023-04-01T22:56:13;7.80;99.90
15111;DHT22;7656;51.954;7.998;2023-04-01T23:06:09;7.50;99.90
15111;DHT22;7656;51.954;7.998;2023-04-01T23:10:42;7.40;99.90
15111;DHT22;7656;51.954;7.998;2023-04-01T23:15:08;7.30;99.90
15111;DHT22;7656;51.954;7.998;2023-04-01T23:29:14;7.00;99.90
15111;DHT22;7656;51.954;7.998;2023-04-01T23:33:37;7.10;99.90
15111;DHT22;7656;51.954;7.998;2023-04-01T23:37:58;7.40;99.90
15111;DHT22;7656;51.954;7.998;2023-04-01T23:46:48;7.30;99.90
15111;DHT22;7656;51.954;7.998;2023-04-01T23:51:55;7.20;99.90
15111;DHT22;7656;51.954;7.998;2023-04-01T23:56:18;7.00;99.90
